Aeroporto :
LOGIN :

Iscrizione | Disclaimer

   EN    FR    IT 

 










Sommario :    VFR   VFR Marginale   IFR   IFR Intensivo   IFR Molto Intensivo
Visibilità : 
Base nubi : 
>= 8 km
>= 3000ft
5 / 8 km
1000 / 3000 ft
1500m / 5 km
500 / 1000 ft
800 / 1500m
200 / 500 ft
< 800m
< 200 ft
Simboli :   Temporali  Nebbia  Neve Forte  Precipitazioni Forti  Vento > 20 kt
SIGMETs :   Varie  Temporali  Ghiacco  Turbolenza  Onda orograficha  Ceneri Vulcaniche






- Altitudine del aeroporto : 610 ft
- Codice IATA : VXO


ESMX - Växjö Kronoberg

ULTIMO METAR :
  • 071020Z 29016KT 9999 FEW040 13/01 Q1025

METARs OBSOLETI :
  • 070950Z 28017KT 9999 FEW040 13/03 Q1024
  • 070920Z 27016KT 9999 SCT035 12/04 Q1024
  • 070850Z 27016G26KT 9999 SCT030 11/03 Q1024
  • 070820Z 25013KT 230V300 9999 SCT021 11/05 Q1023
  • 070750Z 27011KT 230V300 CAVOK 10/06 Q1023

TAF TAF ESMX
Valido dal 07 a 09 ore il 07 a 14 ore UTC


070830Z 0709/0714 29012G25KT CAVOK



MetMap, La meteo Aeronautica in un colpo d'occhio ! - Copyright ORBIFLY Dicembre 2007 - Disclaimer

ORBIFLY MET'MAP TEAM :

Programmazione e sviluppo : Alexandra Zaïnal
Concezione : Baudouin d'Aumeries
Aiuto per la programmazione : Marc-Olivier Méhu
Supporto tecnico e logistico : Manuel Goepfert
Aiuto per la traduzione : Arnaldo La Scala

Contatto : metmap@orbifly.com




FONTI E CREDITI :

   NOAA